createdAt,value
2019-05-15T00:00:42.386Z,83.62
2019-05-15T00:03:10.867Z,83.69
2019-05-15T00:05:39.767Z,83.69
2019-05-15T00:08:09.424Z,83.75
2019-05-15T00:10:40.646Z,83.88
2019-05-15T00:13:09.515Z,83.41
2019-05-15T00:15:40.224Z,83.37
2019-05-15T00:18:09.067Z,83.24
2019-05-15T00:20:39.414Z,83.60
2019-05-15T00:23:08.656Z,83.64
2019-05-15T00:25:39.469Z,83.99
2019-05-15T00:28:09.482Z,84.24
2019-05-15T00:30:38.760Z,84.51
2019-05-15T00:33:08.937Z,84.50
2019-05-15T00:35:50.378Z,84.43
2019-05-15T00:38:18.857Z,84.56
2019-05-15T00:40:49.604Z,84.43
2019-05-15T00:43:18.727Z,84.51
2019-05-15T00:45:48.825Z,84.61
2019-05-15T00:48:18.351Z,84.63
2019-05-15T00:50:48.575Z,84.28
2019-05-15T00:53:19.770Z,84.28
2019-05-15T00:55:48.677Z,84.35
2019-05-15T00:58:19.932Z,84.30
2019-05-15T01:00:48.653Z,85.16
2019-05-15T01:03:18.277Z,85.09
2019-05-15T01:05:48.051Z,84.68
2019-05-15T01:08:19.139Z,84.49
2019-05-15T01:10:48.824Z,84.51
2019-05-15T01:13:19.020Z,84.42
2019-05-15T01:15:48.941Z,84.36
2019-05-15T01:18:18.742Z,84.67
2019-05-15T01:20:49.409Z,84.60
2019-05-15T01:23:18.753Z,84.65
2019-05-15T01:25:48.187Z,84.78
2019-05-15T01:28:18.376Z,84.78
2019-05-15T01:30:48.718Z,84.92
2019-05-15T01:33:18.926Z,84.91
2019-05-15T01:35:49.054Z,84.84
2019-05-15T01:38:18.730Z,85.07
2019-05-15T01:40:48.466Z,85.24
2019-05-15T01:43:18.766Z,85.73
2019-05-15T01:45:48.300Z,86.02
2019-05-15T01:48:18.733Z,86.00
2019-05-15T01:50:46.086Z,85.67
2019-05-15T01:53:13.968Z,85.44
2019-05-15T01:55:41.830Z,85.39
2019-05-15T01:58:09.705Z,85.16
2019-05-15T02:00:39.271Z,85.47
2019-05-15T02:03:09.713Z,85.60
2019-05-15T02:05:39.137Z,85.70
2019-05-15T02:08:08.300Z,85.96
2019-05-15T02:10:39.158Z,85.94
2019-05-15T02:13:08.600Z,85.89
2019-05-15T02:15:39.533Z,85.69
2019-05-15T02:18:08.679Z,85.67
2019-05-15T02:20:38.999Z,85.75
2019-05-15T02:23:11.785Z,85.91
2019-05-15T02:25:38.735Z,85.93
2019-05-15T02:28:09.111Z,85.62
2019-05-15T02:30:40.382Z,85.53
2019-05-15T02:33:10.104Z,86.11
2019-05-15T02:35:39.240Z,85.97
2019-05-15T02:38:09.395Z,85.79
2019-05-15T02:40:35.816Z,85.81
2019-05-15T02:43:09.618Z,85.78
2019-05-15T02:45:40.593Z,86.02
2019-05-15T02:48:08.928Z,86.05
2019-05-15T02:50:39.247Z,86.01
2019-05-15T02:53:09.872Z,85.98
2019-05-15T02:55:40.403Z,86.04
2019-05-15T02:58:09.896Z,86.07
2019-05-15T03:00:47.688Z,86.10
2019-05-15T03:03:09.583Z,86.36
2019-05-15T03:05:40.921Z,86.28
2019-05-15T03:08:09.681Z,86.67
2019-05-15T03:10:40.553Z,86.54
2019-05-15T03:13:09.786Z,86.75
2019-05-15T03:15:40.192Z,87.02
2019-05-15T03:18:09.512Z,87.13
2019-05-15T03:20:38.881Z,87.04
2019-05-15T03:23:09.698Z,86.87
2019-05-15T03:25:35.985Z,86.86
2019-05-15T03:28:03.831Z,86.86
2019-05-15T03:30:41.829Z,86.88
2019-05-15T03:33:09.486Z,86.96
2019-05-15T03:35:33.219Z,87.17
2019-05-15T03:38:01.957Z,87.27
2019-05-15T03:40:30.182Z,87.40
2019-05-15T03:42:59.450Z,87.28
2019-05-15T03:45:29.697Z,87.34
2019-05-15T03:48:01.117Z,87.52
2019-05-15T03:50:31.732Z,87.35
2019-05-15T03:53:00.752Z,87.40
2019-05-15T03:55:29.744Z,87.62
2019-05-15T03:57:59.188Z,87.72
2019-05-15T04:00:30.134Z,87.92
2019-05-15T04:02:59.104Z,88.03
2019-05-15T04:05:29.370Z,88.17
2019-05-15T04:07:59.888Z,88.21
2019-05-15T04:10:28.843Z,88.16
2019-05-15T04:12:59.962Z,87.96
2019-05-15T04:15:30.198Z,88.11
2019-05-15T04:18:00.325Z,88.35
2019-05-15T04:20:29.694Z,87.92
2019-05-15T04:23:00.020Z,87.66
2019-05-15T04:25:29.478Z,87.59
2019-05-15T04:27:58.814Z,87.99
2019-05-15T04:30:26.068Z,88.22
2019-05-15T04:32:53.417Z,88.09
2019-05-15T04:35:20.746Z,88.12
2019-05-15T04:37:49.536Z,88.23
2019-05-15T04:40:19.379Z,88.14
2019-05-15T04:42:49.789Z,87.94
2019-05-15T04:45:19.342Z,88.19
2019-05-15T04:47:45.873Z,88.28
2019-05-15T04:50:13.193Z,88.18
2019-05-15T04:52:43.190Z,87.83
2019-05-15T04:55:10.642Z,87.73
2019-05-15T04:57:40.146Z,87.84
2019-05-15T05:00:09.621Z,88.05
2019-05-15T05:02:39.890Z,88.17
2019-05-15T05:05:10.220Z,88.35
2019-05-15T05:07:39.243Z,88.79
2019-05-15T05:10:09.538Z,89.13
2019-05-15T05:12:40.993Z,89.18
2019-05-15T05:15:08.465Z,89.55
2019-05-15T05:17:35.390Z,89.61
2019-05-15T05:20:02.760Z,89.27
2019-05-15T05:22:30.142Z,88.46
2019-05-15T05:24:58.459Z,86.79
2019-05-15T05:27:25.846Z,85.57
2019-05-15T05:29:53.127Z,80.34
2019-05-15T05:32:30.942Z,78.95
2019-05-15T05:34:49.535Z,79.00
2019-05-15T05:37:18.452Z,70.54
2019-05-15T05:39:45.781Z,72.63
2019-05-15T05:42:13.735Z,65.55
2019-05-15T05:44:42.730Z,61.52
2019-05-15T05:47:10.096Z,62.81
2019-05-15T05:49:38.186Z,60.56
2019-05-15T05:52:08.260Z,54.40
2019-05-15T05:54:34.833Z,54.43
2019-05-15T05:57:02.089Z,54.76
2019-05-15T05:59:29.828Z,53.07
2019-05-15T06:01:58.991Z,50.07
2019-05-15T06:04:27.930Z,48.27
2019-05-15T06:07:07.226Z,47.99
2019-05-15T06:09:24.589Z,47.39
2019-05-15T06:11:51.927Z,44.99
2019-05-15T06:14:19.480Z,45.71
2019-05-15T06:16:48.228Z,46.36
2019-05-15T06:19:15.631Z,49.14
2019-05-15T06:21:54.614Z,47.78
2019-05-15T06:24:13.280Z,47.82
2019-05-15T06:26:40.621Z,45.34
2019-05-15T06:29:08.876Z,47.68
2019-05-15T06:31:38.665Z,46.75
2019-05-15T06:34:05.567Z,44.83
2019-05-15T06:36:32.849Z,44.49
2019-05-15T06:39:00.218Z,48.37
2019-05-15T06:41:28.659Z,45.73
2019-05-15T06:43:56.053Z,45.99
2019-05-15T06:46:23.433Z,46.63
2019-05-15T06:48:50.794Z,45.72
2019-05-15T06:51:18.325Z,47.39
2019-05-15T06:53:45.751Z,42.37
2019-05-15T06:56:13.008Z,43.43
2019-05-15T06:58:40.336Z,46.36
2019-05-15T07:01:08.726Z,43.96
2019-05-15T07:03:38.915Z,41.56
2019-05-15T07:06:05.660Z,40.11
2019-05-15T07:08:33.055Z,42.03
2019-05-15T07:11:00.459Z,39.97
2019-05-15T07:13:28.971Z,43.35
2019-05-15T07:15:58.500Z,40.73
2019-05-15T07:18:28.157Z,38.68
2019-05-15T07:20:54.990Z,45.28
2019-05-15T07:23:22.238Z,41.48
2019-05-15T07:25:50.300Z,39.46
2019-05-15T07:28:18.450Z,44.75
2019-05-15T07:30:45.879Z,42.03
2019-05-15T07:33:13.243Z,45.47
2019-05-15T07:35:40.659Z,39.19
2019-05-15T07:38:08.100Z,41.49
2019-05-15T07:40:38.321Z,39.11
2019-05-15T07:43:04.599Z,40.71
2019-05-15T07:45:31.856Z,40.30
2019-05-15T07:47:59.191Z,36.62
2019-05-15T07:50:26.472Z,38.26
2019-05-15T07:52:53.757Z,38.62
2019-05-15T07:55:20.996Z,40.13
2019-05-15T07:57:49.646Z,40.59
2019-05-15T08:00:19.260Z,40.14
2019-05-15T08:02:48.154Z,40.64
2019-05-15T08:05:18.225Z,37.44
2019-05-15T08:07:45.633Z,40.42
2019-05-15T08:10:13.254Z,44.00
2019-05-15T08:12:40.504Z,38.80
2019-05-15T08:15:09.068Z,39.57
2019-05-15T08:17:58.050Z,38.53
2019-05-15T08:20:09.043Z,38.25
2019-05-15T08:22:38.249Z,38.87
2019-05-15T08:25:11.366Z,41.66
2019-05-15T08:27:38.251Z,37.58
2019-05-15T08:30:08.929Z,38.06
2019-05-15T08:32:36.075Z,36.66
2019-05-15T08:37:29.215Z,34.97
2019-05-15T08:39:59.408Z,34.39
2019-05-15T08:42:28.138Z,34.52
2019-05-15T08:44:55.108Z,36.92
2019-05-15T08:47:22.619Z,35.53
2019-05-15T08:49:49.886Z,32.52
2019-05-15T08:52:18.884Z,39.74
2019-05-15T08:54:48.649Z,36.34
2019-05-15T08:57:15.665Z,36.18
2019-05-15T08:59:42.963Z,34.37
2019-05-15T09:04:40.438Z,35.49
2019-05-15T09:07:09.206Z,38.32
2019-05-15T09:09:38.366Z,33.67
2019-05-15T09:12:08.221Z,34.20
2019-05-15T09:14:35.195Z,33.26
2019-05-15T09:17:02.484Z,35.75
2019-05-15T09:19:29.771Z,38.95
2019-05-15T09:21:58.467Z,37.09
2019-05-15T09:24:28.414Z,34.43
2019-05-15T09:26:55.142Z,34.64
2019-05-15T09:29:22.409Z,34.03
2019-05-15T09:31:49.680Z,33.64
2019-05-15T09:34:18.552Z,35.10
2019-05-15T09:36:48.387Z,35.81
2019-05-15T09:39:15.313Z,37.35
2019-05-15T09:41:42.625Z,37.46
2019-05-15T09:44:10.142Z,36.26
2019-05-15T09:46:38.301Z,39.55
2019-05-15T09:49:08.596Z,39.70
2019-05-15T09:51:35.142Z,37.38
2019-05-15T09:54:02.549Z,34.48
2019-05-15T09:56:29.851Z,34.05
2019-05-15T09:58:58.150Z,36.10
2019-05-15T10:01:28.324Z,34.59
2019-05-15T10:03:54.790Z,36.94
2019-05-15T10:06:22.177Z,33.11
2019-05-15T10:08:49.552Z,38.24
2019-05-15T10:11:19.509Z,34.25
2019-05-15T10:13:46.047Z,32.94
2019-05-15T10:16:13.462Z,34.34
2019-05-15T10:18:40.801Z,33.63
2019-05-15T10:21:08.949Z,33.05
2019-05-15T10:23:39.712Z,33.97
2019-05-15T10:26:13.123Z,35.98
2019-05-15T10:28:35.025Z,32.21
2019-05-15T10:31:02.400Z,30.33
2019-05-15T10:33:30.164Z,36.77
2019-05-15T10:35:59.167Z,32.14
2019-05-15T10:38:28.504Z,31.37
2019-05-15T10:41:08.437Z,31.11
2019-05-15T10:43:25.128Z,31.18
2019-05-15T10:45:54.702Z,31.12
2019-05-15T10:48:21.592Z,29.36
2019-05-15T10:50:48.867Z,31.02
2019-05-15T10:53:18.804Z,31.20
2019-05-15T10:55:46.114Z,31.08
2019-05-15T10:58:17.475Z,29.74
2019-05-15T11:00:44.254Z,29.32
2019-05-15T11:03:15.693Z,30.24
2019-05-15T11:06:03.015Z,29.30
2019-05-15T11:08:33.103Z,31.85
2019-05-15T11:11:10.078Z,32.00
2019-05-15T11:13:42.494Z,30.22
2019-05-15T11:16:11.687Z,30.54
2019-05-15T11:18:40.704Z,32.21
2019-05-15T11:21:10.640Z,36.36
2019-05-15T11:23:42.526Z,34.11
2019-05-15T11:26:09.601Z,32.26
2019-05-15T11:28:39.157Z,35.02
2019-05-15T11:31:10.143Z,36.58
2019-05-15T11:33:38.447Z,34.09
2019-05-15T11:36:06.521Z,30.25
2019-05-15T11:38:35.212Z,32.14
2019-05-15T11:41:04.678Z,29.49
2019-05-15T11:43:32.115Z,28.56
2019-05-15T11:45:59.463Z,29.68
2019-05-15T11:48:29.557Z,30.59
2019-05-15T11:50:57.207Z,33.91
2019-05-15T11:53:24.629Z,33.51
2019-05-15T11:55:55.473Z,30.62
2019-05-15T11:58:23.120Z,30.69
2019-05-15T12:00:57.920Z,31.81
2019-05-15T12:03:29.138Z,33.19
2019-05-15T12:05:59.704Z,32.65
2019-05-15T12:08:25.656Z,35.44
2019-05-15T12:10:52.994Z,36.03
2019-05-15T12:13:20.309Z,33.54
2019-05-15T12:15:48.430Z,33.25
2019-05-15T12:18:15.963Z,34.45
2019-05-15T12:20:43.242Z,33.73
2019-05-15T12:23:10.489Z,32.31
2019-05-15T12:25:39.465Z,33.10
2019-05-15T12:28:09.543Z,34.16
2019-05-15T12:30:40.132Z,32.70
2019-05-15T12:33:06.156Z,34.35
2019-05-15T12:35:33.479Z,30.99
2019-05-15T12:38:00.956Z,29.72
2019-05-15T13:00:22.213Z,29.77
2019-05-15T13:02:49.508Z,29.92
2019-05-15T13:05:19.065Z,31.30
2019-05-15T13:07:48.194Z,31.20
2019-05-15T13:10:18.435Z,30.08
2019-05-15T13:12:59.177Z,26.78
2019-05-15T13:15:14.816Z,25.88
2019-05-15T13:17:42.223Z,27.39
2019-05-15T13:20:09.847Z,25.15
2019-05-15T13:22:39.248Z,25.83
2019-05-15T13:25:08.495Z,27.46
2019-05-15T13:27:38.211Z,28.09
2019-05-15T13:30:05.667Z,25.38
2019-05-15T13:32:33.022Z,26.49
2019-05-15T13:35:00.312Z,23.29
2019-05-15T13:37:30.736Z,23.93
2019-05-15T13:39:58.681Z,23.34
2019-05-15T13:42:28.022Z,26.64
2019-05-15T13:44:55.344Z,26.78
2019-05-15T13:47:22.703Z,26.03
2019-05-15T13:49:50.099Z,27.95
2019-05-15T13:52:18.737Z,28.38
2019-05-15T13:54:48.356Z,24.93
2019-05-15T13:57:17.947Z,28.62
2019-05-15T13:59:45.105Z,29.76
2019-05-15T14:02:12.523Z,28.97
2019-05-15T14:04:39.911Z,29.60
2019-05-15T14:07:08.557Z,28.49
2019-05-15T14:09:43.507Z,29.72
2019-05-15T14:12:05.217Z,31.24
2019-05-15T14:14:32.596Z,31.36
2019-05-15T14:16:59.939Z,31.17
2019-05-15T14:19:28.036Z,30.30
2019-05-15T14:21:55.378Z,29.76
2019-05-15T14:24:22.911Z,30.27
2019-05-15T14:26:50.234Z,34.31
2019-05-15T14:29:18.934Z,32.77
2019-05-15T14:31:48.321Z,28.56
2019-05-15T14:34:18.443Z,27.76
2019-05-15T14:36:45.066Z,24.25
2019-05-15T14:39:12.346Z,25.93
2019-05-15T14:41:39.653Z,25.30
2019-05-15T14:44:17.322Z,25.59
2019-05-15T14:46:38.229Z,26.60
2019-05-15T14:49:05.509Z,27.51
2019-05-15T14:51:32.825Z,29.97
2019-05-15T14:54:00.409Z,28.41
2019-05-15T14:56:28.525Z,29.53
2019-05-15T14:58:58.441Z,30.99
2019-05-15T15:01:25.251Z,30.06
2019-05-15T15:03:54.784Z,28.61
2019-05-15T15:06:22.053Z,28.60
2019-05-15T15:08:50.427Z,27.82
2019-05-15T15:11:18.008Z,27.50
2019-05-15T15:13:45.447Z,25.09
2019-05-15T15:16:12.697Z,22.79
2019-05-15T15:18:40.061Z,24.44
2019-05-15T15:21:08.648Z,24.44
2019-05-15T15:23:38.576Z,24.41
2019-05-15T15:26:05.523Z,28.40
2019-05-15T15:28:32.790Z,30.12
2019-05-15T15:31:00.143Z,30.91
2019-05-15T15:33:28.882Z,32.57
2019-05-15T15:35:58.056Z,31.86
2019-05-15T15:38:38.110Z,32.98
2019-05-15T15:40:54.940Z,33.88
2019-05-15T15:43:22.451Z,32.05
2019-05-15T15:45:49.849Z,29.55
2019-05-15T15:48:19.310Z,27.86
2019-05-15T15:50:48.668Z,23.66
2019-05-15T15:53:15.776Z,22.02
2019-05-15T15:55:43.358Z,25.40
2019-05-15T15:58:10.691Z,28.07
2019-05-15T16:00:38.587Z,30.19
2019-05-15T16:03:08.211Z,28.56
2019-05-15T16:05:35.306Z,30.17
2019-05-15T16:08:02.560Z,29.36
2019-05-15T16:10:29.816Z,31.67
2019-05-15T16:12:58.231Z,32.77
2019-05-15T16:15:25.662Z,33.67
2019-05-15T16:17:53.231Z,33.46
2019-05-15T16:20:20.525Z,30.94
2019-05-15T16:22:48.554Z,27.80
2019-05-15T16:25:17.919Z,25.90
2019-05-15T16:27:45.288Z,25.27
2019-05-15T16:30:12.879Z,24.54
2019-05-15T16:33:48.153Z,24.53
2019-05-15T16:36:18.298Z,22.14
2019-05-15T16:38:48.181Z,22.14
2019-05-15T16:41:18.437Z,25.50
2019-05-15T16:43:45.643Z,22.71
2019-05-15T16:46:13.269Z,22.82
2019-05-15T16:48:42.681Z,23.22
2019-05-15T16:51:10.668Z,24.55
2019-05-15T16:53:38.408Z,27.34
2019-05-15T16:56:05.634Z,28.37
2019-05-15T16:58:33.222Z,29.39
2019-05-15T17:01:00.634Z,32.94
2019-05-15T17:03:28.887Z,31.37
2019-05-15T17:05:58.798Z,32.09
2019-05-15T17:08:28.505Z,32.54
2019-05-15T17:10:55.671Z,33.78
2019-05-15T17:13:23.050Z,36.07
2019-05-15T17:15:50.291Z,36.36
2019-05-15T17:18:18.212Z,36.31
2019-05-15T17:20:45.501Z,36.29
2019-05-15T17:23:12.889Z,35.00
2019-05-15T17:25:40.186Z,36.41
2019-05-15T17:28:09.197Z,37.56
2019-05-15T17:30:38.236Z,37.96
2019-05-15T17:33:05.754Z,32.92
2019-05-15T17:35:33.033Z,37.05
2019-05-15T17:38:00.316Z,36.13
2019-05-15T17:40:28.419Z,37.22
2019-05-15T17:42:58.424Z,35.47
2019-05-15T17:45:25.195Z,35.39
2019-05-15T17:47:52.732Z,38.14
2019-05-15T17:50:20.076Z,35.56
2019-05-15T17:52:49.164Z,37.17
2019-05-15T17:55:18.355Z,37.05
2019-05-15T17:57:53.795Z,36.36
2019-05-15T18:00:15.085Z,37.49
2019-05-15T18:02:42.509Z,38.03
2019-05-15T18:05:11.160Z,36.93
2019-05-15T18:07:39.090Z,37.66
2019-05-15T18:10:08.444Z,37.71
2019-05-15T18:12:38.501Z,38.02
2019-05-15T18:15:05.976Z,38.83
2019-05-15T18:17:33.359Z,38.34
2019-05-15T18:20:00.602Z,38.85
2019-05-15T18:22:28.044Z,39.44
2019-05-15T18:24:55.289Z,40.56
2019-05-15T18:27:22.509Z,42.48
2019-05-15T18:29:49.933Z,40.96
2019-05-15T18:32:18.972Z,42.99
2019-05-15T18:34:48.684Z,43.57
2019-05-15T18:37:15.559Z,44.34
2019-05-15T18:39:42.809Z,44.71
2019-05-15T18:42:10.196Z,45.11
2019-05-15T18:44:39.319Z,46.51
2019-05-15T18:47:08.662Z,46.63
2019-05-15T18:49:37.990Z,48.84
2019-05-15T18:52:05.198Z,50.74
2019-05-15T18:54:32.667Z,52.35
2019-05-15T18:57:00.686Z,54.52
2019-05-15T18:59:28.578Z,54.26
2019-05-15T19:01:58.621Z,53.62
2019-05-15T19:04:28.710Z,57.45
2019-05-15T19:06:55.525Z,58.46
2019-05-15T19:09:22.928Z,59.64
2019-05-15T19:11:50.230Z,55.75
2019-05-15T19:14:19.170Z,52.56
2019-05-15T19:16:48.456Z,47.91
2019-05-15T19:19:18.431Z,49.80
2019-05-15T19:21:45.252Z,48.96
2019-05-15T19:24:12.631Z,47.56
2019-05-15T19:26:40.861Z,48.23
2019-05-15T19:29:08.416Z,47.72
2019-05-15T19:31:35.671Z,48.14
2019-05-15T19:34:02.919Z,47.95
2019-05-15T19:36:30.376Z,50.00
2019-05-15T19:38:57.652Z,48.41
2019-05-15T19:41:25.018Z,48.05
2019-05-15T19:43:52.280Z,49.11
2019-05-15T19:46:19.549Z,48.89
2019-05-15T19:48:48.819Z,48.46
2019-05-15T19:51:18.157Z,48.71
2019-05-15T19:53:47.736Z,44.15
2019-05-15T19:56:14.731Z,45.07
2019-05-15T19:58:42.062Z,49.15
2019-05-15T20:01:09.437Z,48.86
2019-05-15T20:03:49.374Z,51.58
2019-05-15T20:06:07.891Z,52.66
2019-05-15T20:08:38.386Z,50.49
2019-05-15T20:11:05.707Z,54.27
2019-05-15T20:13:33.567Z,55.81
2019-05-15T20:16:00.934Z,53.62
2019-05-15T20:18:28.279Z,55.71
2019-05-15T20:20:58.341Z,55.61
2019-05-15T20:23:25.106Z,55.88
2019-05-15T20:25:52.568Z,57.09
2019-05-15T20:28:19.931Z,55.14
2019-05-15T20:30:48.187Z,56.50
2019-05-15T20:33:17.828Z,57.09
2019-05-15T20:35:45.029Z,57.62
2019-05-15T20:38:12.279Z,57.39
2019-05-15T20:40:39.739Z,57.04
2019-05-15T20:43:08.195Z,56.34
2019-05-15T20:45:35.945Z,55.26
2019-05-15T20:48:03.595Z,54.54
2019-05-15T20:50:30.885Z,55.47
2019-05-15T20:52:58.807Z,56.80
2019-05-15T20:55:26.491Z,57.17
2019-05-15T20:57:53.889Z,57.08
2019-05-15T21:00:21.390Z,57.24
2019-05-15T21:02:48.841Z,57.57
2019-05-15T21:05:18.366Z,59.52
2019-05-15T21:07:47.938Z,57.29
2019-05-15T21:10:14.803Z,56.30
2019-05-15T21:12:42.142Z,56.67
2019-05-15T21:15:09.578Z,56.82
2019-05-15T21:17:40.367Z,56.72
2019-05-15T21:20:09.045Z,56.46
2019-05-15T21:22:35.523Z,54.53
2019-05-15T21:25:02.964Z,54.19
2019-05-15T21:27:32.500Z,54.63
2019-05-15T21:29:59.550Z,55.19
2019-05-15T21:32:28.527Z,54.38
2019-05-15T21:34:58.273Z,53.97
2019-05-15T21:37:27.510Z,53.71
2019-05-15T21:39:58.905Z,54.86
2019-05-15T21:42:25.976Z,55.68
2019-05-15T21:44:53.254Z,53.98
2019-05-15T21:47:21.034Z,54.28
2019-05-15T21:49:49.252Z,54.15
2019-05-15T21:52:18.525Z,53.95
2019-05-15T21:54:47.477Z,55.35
2019-05-15T21:57:32.402Z,55.58
2019-05-15T21:59:45.353Z,55.44
2019-05-15T22:02:12.727Z,55.02
2019-05-15T22:04:51.788Z,57.46
2019-05-15T22:07:10.216Z,57.17
2019-05-15T22:09:38.158Z,56.93
2019-05-15T22:12:06.299Z,57.00
2019-05-15T22:14:33.577Z,57.65
2019-05-15T22:17:00.879Z,57.44
2019-05-15T22:19:30.189Z,57.77
2019-05-15T22:21:58.636Z,55.68
2019-05-15T22:24:28.414Z,56.16
2019-05-15T22:26:55.233Z,57.57
2019-05-15T22:29:22.555Z,54.75
2019-05-15T22:31:49.843Z,56.34
2019-05-15T22:34:18.459Z,54.47
2019-05-15T22:36:46.041Z,55.03
2019-05-15T22:39:13.399Z,53.56
2019-05-15T22:41:40.635Z,54.04
2019-05-15T22:44:10.032Z,54.43
2019-05-15T22:46:38.261Z,53.66
2019-05-15T22:49:05.700Z,52.69
2019-05-15T22:51:33.082Z,53.71
2019-05-15T22:54:00.450Z,52.48
2019-05-15T22:56:29.661Z,53.73
2019-05-15T22:58:58.407Z,53.24
2019-05-15T23:01:26.438Z,53.17
2019-05-15T23:03:54.435Z,54.81
2019-05-15T23:06:21.852Z,55.14
2019-05-15T23:08:49.571Z,55.25
2019-05-15T23:11:18.284Z,54.03
2019-05-15T23:13:48.434Z,53.61
2019-05-15T23:16:18.182Z,54.88
2019-05-15T23:18:45.104Z,54.58
2019-05-15T23:21:12.493Z,52.43
2019-05-15T23:23:39.835Z,53.20
2019-05-15T23:26:07.079Z,55.31
2019-05-15T23:28:34.315Z,53.80
2019-05-15T23:31:01.573Z,52.10
2019-05-15T23:33:28.905Z,50.98
2019-05-15T23:35:58.566Z,53.01
2019-05-15T23:38:25.468Z,55.47
2019-05-15T23:40:52.725Z,52.56
2019-05-15T23:43:20.013Z,53.01
2019-05-15T23:45:48.388Z,53.84
2019-05-15T23:48:15.813Z,52.93
2019-05-15T23:50:43.148Z,52.01
2019-05-15T23:53:10.446Z,53.59
2019-05-15T23:55:38.760Z,54.52
2019-05-15T23:58:05.981Z,52.91
